Time;durP1;ratioP1;P1;durP2;ratioP2;P2;SDS_P1;SDS_P2;PMS_P1;PMS_P2;Temp;Humidity;BMP_temperature;BMP_pressure;BME280_temperature;BME280_humidity;BME280_pressure;Samples;Min_cycle;Max_cycle;Signal;HPM_P1;HPM_P2
2023/01/15 00:00:14;;;;;;;14.37;5.70;;;;;;;;;;4956933;28;20055;-69
2023/01/15 00:02:39;;;;;;;18.30;6.50;;;;;;;;;;4956908;28;20038;-70
2023/01/15 00:05:05;;;;;;;14.73;6.10;;;;;;;;;;4940991;28;20053;-70
2023/01/15 00:07:31;;;;;;;11.53;5.50;;;;;;;;;;4973010;28;20413;-69
2023/01/15 00:09:57;;;;;;;11.97;5.93;;;;;;;;;;4924673;28;20066;-69
2023/01/15 00:12:23;;;;;;;14.63;5.63;;;;;;;;;;4956699;28;20030;-69
2023/01/15 00:14:48;;;;;;;15.23;6.43;;;;;;;;;;4940836;28;20073;-70
2023/01/15 00:17:14;;;;;;;16.27;6.50;;;;;;;;;;4956800;28;20129;-70
2023/01/15 00:19:39;;;;;;;16.27;5.50;;;;;;;;;;4924961;28;20026;-70
2023/01/15 00:22:05;;;;;;;17.17;6.93;;;;;;;;;;4956509;28;20524;-71
2023/01/15 00:29:59;;;;;;;13.97;6.17;;;;;;;;;;4940723;28;20042;-70
2023/01/15 00:32:28;;;;;;;16.50;6.43;;;;;;;;;;4940616;28;20440;-71
2023/01/15 00:34:54;;;;;;;16.17;6.53;;;;;;;;;;4956120;28;20042;-71
2023/01/15 00:37:20;;;;;;;14.53;5.93;;;;;;;;;;4924562;28;20035;-72
2023/01/15 00:39:47;;;;;;;14.27;6.17;;;;;;;;;;4953031;28;20575;-71
2023/01/15 00:42:12;;;;;;;18.63;6.07;;;;;;;;;;4926466;28;20141;-71
2023/01/15 00:44:38;;;;;;;16.90;6.30;;;;;;;;;;4938382;28;20362;-70
2023/01/15 00:47:07;;;;;;;20.30;7.03;;;;;;;;;;4938789;28;20034;-71
2023/01/15 00:49:33;;;;;;;14.20;6.40;;;;;;;;;;4922640;28;20453;-70
2023/01/15 00:51:59;;;;;;;13.43;6.33;;;;;;;;;;4938535;28;20034;-70
2023/01/15 00:54:25;;;;;;;13.93;5.83;;;;;;;;;;4923157;28;20054;-70
2023/01/15 00:56:52;;;;;;;14.00;6.13;;;;;;;;;;4956412;28;20043;-70
2023/01/15 00:59:17;;;;;;;17.47;6.60;;;;;;;;;;4940505;28;20492;-70
2023/01/15 01:01:43;;;;;;;22.80;6.63;;;;;;;;;;4940691;28;20161;-70
2023/01/15 01:04:09;;;;;;;14.13;6.53;;;;;;;;;;4940335;28;20034;-71
2023/01/15 01:06:35;;;;;;;15.37;5.70;;;;;;;;;;4924580;28;20100;-71
2023/01/15 01:09:00;;;;;;;14.43;6.03;;;;;;;;;;4924797;28;20053;-70
2023/01/15 01:11:32;;;;;;;18.83;6.83;;;;;;;;;;4924951;28;20034;-71
2023/01/15 01:14:00;;;;;;;13.53;6.33;;;;;;;;;;4940354;28;20050;-71
2023/01/15 01:16:32;;;;;;;24.70;6.37;;;;;;;;;;4924526;28;20117;-70
2023/01/15 01:18:58;;;;;;;12.80;6.13;;;;;;;;;;4923865;28;20500;-71
2023/01/15 01:21:25;;;;;;;14.27;6.37;;;;;;;;;;4924273;28;20053;-71
2023/01/15 01:23:51;;;;;;;13.60;6.03;;;;;;;;;;4924250;28;20054;-72
2023/01/15 01:26:16;;;;;;;19.97;7.23;;;;;;;;;;4908180;28;20043;-71
2023/01/15 01:28:42;;;;;;;15.43;6.07;;;;;;;;;;4939282;28;20038;-71
2023/01/15 01:31:08;;;;;;;15.03;6.70;;;;;;;;;;4922589;28;20078;-71
2023/01/15 01:33:34;;;;;;;19.60;6.47;;;;;;;;;;4922285;28;20042;-70
2023/01/15 01:36:01;;;;;;;14.63;6.63;;;;;;;;;;4938742;28;20081;-70
2023/01/15 01:38:26;;;;;;;17.13;6.17;;;;;;;;;;4938413;28;20070;-71
2023/01/15 01:40:52;;;;;;;22.03;6.43;;;;;;;;;;4925006;28;20143;-70
2023/01/15 01:43:20;;;;;;;25.23;7.07;;;;;;;;;;4926274;28;20044;-70
2023/01/15 01:45:47;;;;;;;24.53;6.63;;;;;;;;;;4944058;28;20480;-70
2023/01/15 01:48:14;;;;;;;16.00;6.40;;;;;;;;;;4927593;28;20030;-70
2023/01/15 01:50:40;;;;;;;17.27;6.90;;;;;;;;;;4927656;28;20041;-70
2023/01/15 01:53:07;;;;;;;11.70;6.60;;;;;;;;;;4927522;28;20047;-70
2023/01/15 01:55:33;;;;;;;15.17;6.97;;;;;;;;;;4943118;28;20059;-70
2023/01/15 01:58:00;;;;;;;19.40;6.93;;;;;;;;;;4927422;28;20035;-70
2023/01/15 02:00:26;;;;;;;18.77;6.50;;;;;;;;;;4927274;28;20113;-70
2023/01/15 02:02:52;;;;;;;9.33;5.20;;;;;;;;;;4927480;28;20134;-73
2023/01/15 02:05:27;;;;;;;17.23;6.87;;;;;;;;;;4927456;28;20450;-70
2023/01/15 02:07:54;;;;;;;20.07;6.43;;;;;;;;;;4927258;28;20023;-71
2023/01/15 02:10:19;;;;;;;16.63;5.77;;;;;;;;;;4927364;28;20473;-70
2023/01/15 02:12:49;;;;;;;19.43;6.53;;;;;;;;;;4927198;28;20077;-70
2023/01/15 02:15:17;;;;;;;22.73;6.07;;;;;;;;;;4942968;28;20034;-70
2023/01/15 02:18:09;;;;;;;16.17;6.13;;;;;;;;;;4943851;28;20500;-70
2023/01/15 02:20:38;;;;;;;18.60;6.60;;;;;;;;;;4942922;28;20421;-69
2023/01/15 02:23:30;;;;;;;15.17;6.33;;;;;;;;;;4926730;28;20366;-70
2023/01/15 02:25:56;;;;;;;23.37;7.87;;;;;;;;;;4952703;28;20038;-70
2023/01/15 02:28:40;;;;;;;20.00;7.23;;;;;;;;;;4924458;28;20062;-70
2023/01/15 02:31:06;;;;;;;14.87;6.00;;;;;;;;;;4958828;28;20035;-70
2023/01/15 02:33:37;;;;;;;23.27;6.63;;;;;;;;;;4925369;28;20061;-70
2023/01/15 02:36:06;;;;;;;14.40;7.07;;;;;;;;;;4926773;28;20037;-71
2023/01/15 02:38:39;;;;;;;19.97;6.93;;;;;;;;;;4942842;28;20034;-70
2023/01/15 02:41:15;;;;;;;20.07;6.83;;;;;;;;;;4942706;28;20050;-71
2023/01/15 02:43:42;;;;;;;20.27;6.60;;;;;;;;;;4926429;28;20077;-71
2023/01/15 02:46:08;;;;;;;18.73;6.80;;;;;;;;;;4926545;28;20031;-70
2023/01/15 02:48:36;;;;;;;19.33;6.70;;;;;;;;;;4942480;28;20047;-70
2023/01/15 02:51:07;;;;;;;21.43;6.37;;;;;;;;;;4925745;28;20043;-71
2023/01/15 02:53:35;;;;;;;21.43;7.13;;;;;;;;;;4957367;28;20050;-71
2023/01/15 02:56:02;;;;;;;23.07;7.27;;;;;;;;;;4941715;28;20047;-70
2023/01/15 02:58:36;;;;;;;21.10;6.33;;;;;;;;;;4958312;28;20045;-70
2023/01/15 03:01:05;;;;;;;20.80;7.40;;;;;;;;;;4942244;28;20113;-70
2023/01/15 03:03:51;;;;;;;21.60;7.30;;;;;;;;;;4926677;28;20129;-71
2023/01/15 03:06:22;;;;;;;21.27;6.97;;;;;;;;;;4926921;28;20511;-71
2023/01/15 03:08:49;;;;;;;22.93;6.20;;;;;;;;;;4943091;28;20038;-70
2023/01/15 03:11:17;;;;;;;20.50;6.33;;;;;;;;;;4941336;28;20139;-70
2023/01/15 03:13:54;;;;;;;15.18;6.43;;;;;;;;;;4923137;29;20046;-71
2023/01/15 03:16:39;;;;;;;21.23;6.83;;;;;;;;;;4951608;28;20039;-70
2023/01/15 03:19:24;;;;;;;22.13;6.33;;;;;;;;;;4925706;28;20035;-71
2023/01/15 03:21:55;;;;;;;19.10;7.00;;;;;;;;;;4941472;28;20047;-70
2023/01/15 03:24:32;;;;;;;16.90;5.70;;;;;;;;;;4957264;28;20042;-70
2023/01/15 03:26:58;;;;;;;24.47;7.07;;;;;;;;;;4925345;28;20129;-71
2023/01/15 03:29:26;;;;;;;20.63;6.63;;;;;;;;;;4941461;28;20034;-71
2023/01/15 03:31:52;;;;;;;18.50;6.60;;;;;;;;;;4925537;28;20035;-71
2023/01/15 03:34:19;;;;;;;19.30;6.60;;;;;;;;;;4941083;28;20389;-70
2023/01/15 03:36:46;;;;;;;19.43;6.67;;;;;;;;;;4925231;28;20034;-70
2023/01/15 03:39:13;;;;;;;21.37;7.50;;;;;;;;;;4941114;28;20039;-71
2023/01/15 03:41:55;;;;;;;17.90;7.33;;;;;;;;;;4958500;28;20540;-70
2023/01/15 03:44:21;;;;;;;10.70;5.73;;;;;;;;;;4940516;28;20129;-71
2023/01/15 03:46:58;;;;;;;22.80;7.00;;;;;;;;;;4925022;28;20561;-71
2023/01/15 03:49:33;;;;;;;18.90;6.30;;;;;;;;;;4957433;28;20038;-71
2023/01/15 03:52:17;;;;;;;22.90;7.27;;;;;;;;;;4925760;28;20034;-71
2023/01/15 03:55:05;;;;;;;16.90;6.47;;;;;;;;;;4956455;28;20054;-71
2023/01/15 03:57:40;;;;;;;19.37;7.17;;;;;;;;;;4941013;28;20051;-71
2023/01/15 04:00:08;;;;;;;25.30;7.10;;;;;;;;;;4921653;29;20130;-72
2023/01/15 04:02:43;;;;;;;18.57;6.43;;;;;;;;;;4956624;28;20033;-71
2023/01/15 04:05:09;;;;;;;31.07;7.53;;;;;;;;;;4940680;28;20042;-71
2023/01/15 04:07:36;;;;;;;19.50;7.30;;;;;;;;;;4924134;28;20035;-71
2023/01/15 04:10:07;;;;;;;23.10;6.93;;;;;;;;;;4940512;28;20046;-71
2023/01/15 04:12:35;;;;;;;18.63;7.72;;;;;;;;;;4924718;28;20100;-71
2023/01/15 04:15:06;;;;;;;26.08;7.72;;;;;;;;;;4924904;28;20054;-71
2023/01/15 04:17:32;;;;;;;22.03;7.77;;;;;;;;;;4924440;28;20030;-71
2023/01/15 04:19:58;;;;;;;21.80;7.37;;;;;;;;;;4924922;28;20871;-70
2023/01/15 04:22:24;;;;;;;23.07;7.40;;;;;;;;;;4916535;28;20046;-71
2023/01/15 04:24:50;;;;;;;18.23;7.13;;;;;;;;;;4925207;28;21126;-71
2023/01/15 04:27:16;;;;;;;20.03;7.67;;;;;;;;;;4924155;28;20045;-71
2023/01/15 04:29:42;;;;;;;27.83;8.13;;;;;;;;;;4940541;28;20381;-70
2023/01/15 04:32:09;;;;;;;20.87;7.37;;;;;;;;;;4940281;28;20034;-71
2023/01/15 04:34:35;;;;;;;22.80;8.27;;;;;;;;;;4956169;28;20098;-71
2023/01/15 04:37:02;;;;;;;23.17;7.47;;;;;;;;;;4923905;28;20389;-71
2023/01/15 04:39:27;;;;;;;26.10;7.00;;;;;;;;;;4924657;28;20038;-70
2023/01/15 04:44:40;;;;;;;25.33;7.70;;;;;;;;;;4939655;28;20133;-71
2023/01/15 04:47:07;;;;;;;26.77;7.87;;;;;;;;;;4956163;28;20140;-72
2023/01/15 04:49:34;;;;;;;27.67;7.73;;;;;;;;;;4940563;28;20050;-70
2023/01/15 04:52:00;;;;;;;25.40;7.27;;;;;;;;;;4941067;28;20488;-71
2023/01/15 04:54:26;;;;;;;23.30;7.50;;;;;;;;;;4940888;28;20070;-71
2023/01/15 04:56:53;;;;;;;21.73;6.30;;;;;;;;;;4924614;28;20492;-71
2023/01/15 04:59:20;;;;;;;14.07;6.77;;;;;;;;;;4924443;28;20089;-70
2023/01/15 05:01:46;;;;;;;22.03;7.03;;;;;;;;;;4939989;28;20106;-71
2023/01/15 05:04:11;;;;;;;19.47;6.77;;;;;;;;;;4939681;28;20046;-71
2023/01/15 05:06:38;;;;;;;20.47;7.17;;;;;;;;;;4923655;28;20079;-70
2023/01/15 05:09:04;;;;;;;28.00;8.23;;;;;;;;;;4923571;28;20043;-71
2023/01/15 05:11:30;;;;;;;23.53;7.27;;;;;;;;;;4923851;28;20041;-70
2023/01/15 05:13:57;;;;;;;19.23;7.17;;;;;;;;;;4955548;28;20049;-70
2023/01/15 05:16:24;;;;;;;29.17;8.40;;;;;;;;;;4943055;28;20053;-69
2023/01/15 05:18:50;;;;;;;19.90;7.30;;;;;;;;;;4976536;28;20050;-70
2023/01/15 05:21:26;;;;;;;24.00;7.90;;;;;;;;;;4942237;28;20525;-70
2023/01/15 05:23:56;;;;;;;27.47;8.03;;;;;;;;;;4959648;28;20138;-69
2023/01/15 05:26:22;;;;;;;22.77;7.53;;;;;;;;;;4943561;28;20053;-70
2023/01/15 05:28:48;;;;;;;29.23;8.73;;;;;;;;;;4975340;28;20087;-70
2023/01/15 05:31:14;;;;;;;19.90;7.33;;;;;;;;;;4943457;28;20089;-71
2023/01/15 05:33:40;;;;;;;20.93;7.03;;;;;;;;;;4927787;28;20043;-70
2023/01/15 05:36:08;;;;;;;27.43;7.90;;;;;;;;;;4943446;28;20073;-70
2023/01/15 05:38:36;;;;;;;18.37;7.57;;;;;;;;;;4943356;28;20030;-71
2023/01/15 05:41:51;;;;;;;21.83;7.90;;;;;;;;;;4927571;28;20062;-70
2023/01/15 05:43:52;;;;;;;17.67;7.47;;;;;;;;;;4952035;28;20074;-71
2023/01/15 05:46:24;;;;;;;21.50;7.07;;;;;;;;;;4943131;28;20074;-72
2023/01/15 05:48:51;;;;;;;26.80;8.73;;;;;;;;;;4927336;28;20034;-71
2023/01/15 05:51:17;;;;;;;30.63;8.23;;;;;;;;;;4927418;28;20485;-71
2023/01/15 05:53:43;;;;;;;28.60;8.13;;;;;;;;;;4926615;28;20153;-70
2023/01/15 05:56:08;;;;;;;28.73;8.40;;;;;;;;;;4926005;28;20027;-70
2023/01/15 05:58:34;;;;;;;25.17;8.47;;;;;;;;;;4926299;28;20604;-71
2023/01/15 06:01:04;;;;;;;26.53;8.87;;;;;;;;;;4925707;28;20057;-70
2023/01/15 06:03:30;;;;;;;23.45;7.82;;;;;;;;;;4925970;28;20038;-71
2023/01/15 06:05:57;;;;;;;32.13;8.63;;;;;;;;;;4925584;28;20204;-70
2023/01/15 06:08:23;;;;;;;21.50;7.47;;;;;;;;;;4941657;28;20051;-72
2023/01/15 06:10:49;;;;;;;36.70;9.03;;;;;;;;;;4941425;28;20039;-72
2023/01/15 06:13:16;;;;;;;24.97;7.93;;;;;;;;;;4925911;28;20133;-75
2023/01/15 06:15:42;;;;;;;24.43;8.57;;;;;;;;;;4925490;28;20105;-74
2023/01/15 06:18:08;;;;;;;25.20;7.70;;;;;;;;;;4940874;28;20034;-74
2023/01/15 06:20:35;;;;;;;21.17;7.67;;;;;;;;;;4974445;28;20049;-74
2023/01/15 06:23:01;;;;;;;22.33;7.73;;;;;;;;;;4940922;28;20137;-76
2023/01/15 06:25:27;;;;;;;39.90;8.37;;;;;;;;;;4957216;28;20820;-72
2023/01/15 06:28:16;;;;;;;33.00;8.33;;;;;;;;;;4925908;28;20070;-71
2023/01/15 06:30:49;;;;;;;19.57;8.13;;;;;;;;;;4957580;28;20038;-77
2023/01/15 06:33:18;;;;;;;25.13;8.85;;;;;;;;;;4941674;28;20063;-75
2023/01/15 06:35:44;;;;;;;31.23;8.63;;;;;;;;;;4941053;28;20074;-72
2023/01/15 06:38:10;;;;;;;24.23;8.23;;;;;;;;;;4925376;28;20039;-73
2023/01/15 06:40:38;;;;;;;25.93;7.90;;;;;;;;;;4941250;28;20090;-75
2023/01/15 06:47:19;;;;;;;18.73;7.53;;;;;;;;;;4927688;29;20541;-72
2023/01/15 06:49:17;;;;;;;26.07;9.13;;;;;;;;;;4951996;29;20035;-76
2023/01/15 06:51:45;;;;;;;30.57;9.53;;;;;;;;;;4932502;29;20095;-74
2023/01/15 06:54:37;;;;;;;27.63;8.77;;;;;;;;;;4849787;29;2350560;-75
2023/01/15 06:57:07;;;;;;;25.63;8.30;;;;;;;;;;4940848;28;20394;-74
2023/01/15 06:59:34;;;;;;;28.00;8.20;;;;;;;;;;4918635;29;20035;-75
2023/01/15 07:02:00;;;;;;;31.87;10.03;;;;;;;;;;4916196;28;20049;-75
2023/01/15 07:04:27;;;;;;;29.20;8.53;;;;;;;;;;4954821;28;20405;-73
2023/01/15 07:06:55;;;;;;;25.17;8.90;;;;;;;;;;4955256;28;20481;-72
2023/01/15 07:09:23;;;;;;;35.93;9.57;;;;;;;;;;4938899;28;20063;-73
2023/01/15 07:11:52;;;;;;;23.60;8.52;;;;;;;;;;4939727;28;20073;-74
2023/01/15 07:14:30;;;;;;;19.70;7.97;;;;;;;;;;4938713;28;20038;-75
2023/01/15 07:17:03;;;;;;;25.20;7.00;;;;;;;;;;4970932;28;20047;-73
2023/01/15 07:19:49;;;;;;;25.40;8.93;;;;;;;;;;4971949;28;20046;-73
2023/01/15 07:22:18;;;;;;;30.43;9.97;;;;;;;;;;4923141;28;20050;-75
2023/01/15 07:24:51;;;;;;;21.93;8.83;;;;;;;;;;4954854;28;20042;-74
2023/01/15 07:27:20;;;;;;;26.63;8.57;;;;;;;;;;4954850;28;20385;-73
2023/01/15 07:29:48;;;;;;;28.10;9.50;;;;;;;;;;4938202;28;20042;-72
2023/01/15 07:32:15;;;;;;;18.27;8.00;;;;;;;;;;4923617;28;20134;-73
2023/01/15 07:34:41;;;;;;;27.73;7.97;;;;;;;;;;4938864;28;20038;-78
2023/01/15 07:37:08;;;;;;;32.50;8.37;;;;;;;;;;4922807;28;20035;-76
2023/01/15 07:39:40;;;;;;;28.80;8.10;;;;;;;;;;4971773;28;20138;-75
2023/01/15 07:50:23;;;;;;;19.83;7.10;;;;;;;;;;4951449;28;20563;-74
2023/01/15 07:52:49;;;;;;;17.93;8.10;;;;;;;;;;4938465;28;20031;-76
2023/01/15 07:55:16;;;;;;;22.27;7.67;;;;;;;;;;4937731;28;20747;-76
2023/01/15 07:57:43;;;;;;;24.70;9.00;;;;;;;;;;4919588;28;20808;-77
2023/01/15 08:00:13;;;;;;;31.23;9.33;;;;;;;;;;4905997;28;20041;-74
2023/01/15 08:02:39;;;;;;;33.63;9.45;;;;;;;;;;4937348;28;20197;-75
2023/01/15 08:05:05;;;;;;;26.23;10.20;;;;;;;;;;4937428;28;20810;-74
2023/01/15 08:07:35;;;;;;;24.70;8.53;;;;;;;;;;4938113;28;20042;-75
2023/01/15 08:10:01;;;;;;;24.38;8.70;;;;;;;;;;4937860;28;20050;-75
2023/01/15 08:15:30;;;;;;;24.23;8.33;;;;;;;;;;4908283;28;20058;-74
2023/01/15 08:17:56;;;;;;;20.57;8.80;;;;;;;;;;4937979;28;20042;-75
2023/01/15 08:20:23;;;;;;;25.17;8.37;;;;;;;;;;4936617;28;20054;-76
2023/01/15 08:22:50;;;;;;;26.90;8.90;;;;;;;;;;4920855;28;20039;-75
2023/01/15 08:25:17;;;;;;;25.27;8.30;;;;;;;;;;4920868;28;20041;-73
2023/01/15 08:27:43;;;;;;;28.10;8.73;;;;;;;;;;4921243;28;20049;-75
2023/01/15 08:30:11;;;;;;;21.33;7.73;;;;;;;;;;4936615;28;20054;-70
2023/01/15 08:32:38;;;;;;;24.50;8.57;;;;;;;;;;4921120;28;20037;-70
2023/01/15 08:35:03;;;;;;;23.47;8.00;;;;;;;;;;4935778;28;20030;-72
2023/01/15 08:37:29;;;;;;;19.67;7.40;;;;;;;;;;4969494;28;20145;-69
2023/01/15 08:39:55;;;;;;;22.53;7.73;;;;;;;;;;4920959;28;20141;-67
2023/01/15 08:42:21;;;;;;;23.47;8.30;;;;;;;;;;4937464;28;20042;-69
2023/01/15 08:44:47;;;;;;;20.20;8.10;;;;;;;;;;4921746;28;20473;-68
2023/01/15 08:47:14;;;;;;;23.30;7.80;;;;;;;;;;4936533;28;20035;-70
2023/01/15 08:49:39;;;;;;;29.87;9.57;;;;;;;;;;4935243;28;20074;-69
2023/01/15 08:52:05;;;;;;;22.83;7.87;;;;;;;;;;4918690;28;20062;-69
2023/01/15 08:54:31;;;;;;;25.57;7.73;;;;;;;;;;4918298;28;20063;-69
2023/01/15 08:56:57;;;;;;;22.83;7.07;;;;;;;;;;4934011;28;20114;-68
2023/01/15 08:59:23;;;;;;;18.47;7.77;;;;;;;;;;4948254;28;20089;-69
2023/01/15 09:01:49;;;;;;;22.40;7.10;;;;;;;;;;4950797;28;20051;-70
2023/01/15 09:04:15;;;;;;;19.77;6.73;;;;;;;;;;4934945;28;20397;-70
2023/01/15 09:06:41;;;;;;;18.10;7.20;;;;;;;;;;4921810;28;20041;-70
2023/01/15 09:09:07;;;;;;;22.33;7.63;;;;;;;;;;4937145;28;20424;-68
2023/01/15 09:11:35;;;;;;;20.07;7.67;;;;;;;;;;4921218;28;20038;-70
2023/01/15 09:14:00;;;;;;;19.20;7.43;;;;;;;;;;4921597;28;20047;-70
2023/01/15 09:16:26;;;;;;;16.53;7.30;;;;;;;;;;4921542;28;20749;-69
2023/01/15 09:18:52;;;;;;;23.73;8.23;;;;;;;;;;4935826;28;20482;-69
2023/01/15 09:21:19;;;;;;;20.73;7.23;;;;;;;;;;4936780;28;20059;-68
2023/01/15 09:23:44;;;;;;;38.90;7.37;;;;;;;;;;4937538;28;20043;-68
2023/01/15 09:26:39;;;;;;;23.53;7.47;;;;;;;;;;4921615;28;20393;-68
2023/01/15 09:29:06;;;;;;;21.37;6.40;;;;;;;;;;4907985;28;20043;-68
2023/01/15 09:31:32;;;;;;;19.43;6.40;;;;;;;;;;4936379;28;20034;-68
2023/01/15 09:33:58;;;;;;;20.27;6.83;;;;;;;;;;4921191;28;20035;-67
2023/01/15 09:36:27;;;;;;;13.40;5.10;;;;;;;;;;4921361;28;20813;-67
2023/01/15 09:38:53;;;;;;;11.73;5.37;;;;;;;;;;4953019;28;20074;-68
2023/01/15 09:44:16;;;;;;;14.37;5.90;;;;;;;;;;4923946;28;20050;-68
2023/01/15 09:46:50;;;;;;;14.13;5.60;;;;;;;;;;4937813;28;20035;-69
2023/01/15 09:49:16;;;;;;;17.67;5.93;;;;;;;;;;4921357;28;20548;-69
2023/01/15 09:52:03;;;;;;;16.00;6.03;;;;;;;;;;4921572;28;20149;-69
2023/01/15 09:54:48;;;;;;;13.63;6.07;;;;;;;;;;4916531;29;20564;-70
2023/01/15 09:57:15;;;;;;;17.60;5.83;;;;;;;;;;4939846;29;20121;-71
2023/01/15 09:59:43;;;;;;;21.37;6.30;;;;;;;;;;4915235;29;20043;-69
2023/01/15 10:02:32;;;;;;;14.70;6.57;;;;;;;;;;4919445;29;20099;-69
2023/01/15 10:05:16;;;;;;;19.20;6.17;;;;;;;;;;4926903;29;20082;-68
2023/01/15 10:07:41;;;;;;;17.17;6.53;;;;;;;;;;4937281;29;20043;-70
2023/01/15 10:10:14;;;;;;;13.43;5.37;;;;;;;;;;4936864;29;20050;-69
2023/01/15 10:12:43;;;;;;;14.47;5.93;;;;;;;;;;4921647;29;20047;-70
2023/01/15 10:15:12;;;;;;;14.07;5.90;;;;;;;;;;4936802;28;20078;-71
2023/01/15 10:17:45;;;;;;;13.77;5.53;;;;;;;;;;4936747;28;20039;-70
2023/01/15 10:20:15;;;;;;;16.33;5.30;;;;;;;;;;4936711;28;20398;-68
2023/01/15 10:22:40;;;;;;;16.95;5.55;;;;;;;;;;4936523;29;20050;-70
2023/01/15 10:25:11;;;;;;;21.63;5.27;;;;;;;;;;4920479;29;20035;-71
2023/01/15 10:27:39;;;;;;;18.33;5.55;;;;;;;;;;4935807;29;20557;-68
2023/01/15 10:30:24;;;;;;;11.97;5.47;;;;;;;;;;4905270;29;20462;-69
2023/01/15 10:32:54;;;;;;;20.50;5.97;;;;;;;;;;4929045;29;20043;-67
2023/01/15 10:35:40;;;;;;;14.77;5.87;;;;;;;;;;4949160;28;20442;-69
2023/01/15 10:38:25;;;;;;;20.83;5.60;;;;;;;;;;4919456;29;20055;-68
2023/01/15 10:40:52;;;;;;;21.30;5.57;;;;;;;;;;4920622;29;20359;-68
2023/01/15 10:43:17;;;;;;;12.97;4.77;;;;;;;;;;4935653;29;20500;-70
2023/01/15 10:45:45;;;;;;;15.97;5.20;;;;;;;;;;4920260;29;20054;-66
2023/01/15 10:48:16;;;;;;;12.50;5.80;;;;;;;;;;4919881;29;20046;-68
2023/01/15 10:50:42;;;;;;;18.03;5.90;;;;;;;;;;4920574;29;20477;-68
2023/01/15 10:53:20;;;;;;;23.80;6.07;;;;;;;;;;4920160;29;20549;-69
2023/01/15 10:55:51;;;;;;;13.67;5.47;;;;;;;;;;4919754;29;20066;-72
2023/01/15 10:58:17;;;;;;;12.13;5.67;;;;;;;;;;4901691;29;20039;-71
2023/01/15 11:00:47;;;;;;;13.50;5.30;;;;;;;;;;4936413;29;20051;-71
2023/01/15 11:03:17;;;;;;;11.63;4.97;;;;;;;;;;4920619;29;20046;-71
2023/01/15 11:05:45;;;;;;;15.87;4.97;;;;;;;;;;4904418;29;20130;-70
2023/01/15 11:08:22;;;;;;;16.80;5.57;;;;;;;;;;4903781;29;20042;-71
2023/01/15 11:10:48;;;;;;;14.40;5.53;;;;;;;;;;4919470;29;20053;-69
2023/01/15 11:21:45;;;;;;;17.67;6.07;;;;;;;;;;4919694;29;20505;-69
2023/01/15 11:24:15;;;;;;;21.03;6.47;;;;;;;;;;4919559;29;20129;-69
2023/01/15 11:26:44;;;;;;;13.57;4.67;;;;;;;;;;4919185;29;20085;-70
2023/01/15 11:29:12;;;;;;;15.73;5.67;;;;;;;;;;4903546;29;20106;-69
2023/01/15 11:31:39;;;;;;;15.47;5.33;;;;;;;;;;4903969;29;20035;-70
2023/01/15 11:34:14;;;;;;;11.23;5.67;;;;;;;;;;4935194;29;20035;-69
2023/01/15 11:36:41;;;;;;;20.37;5.57;;;;;;;;;;4919140;29;20035;-73
2023/01/15 11:39:30;;;;;;;17.00;5.53;;;;;;;;;;4903271;29;20051;-71
2023/01/15 11:53:08;;;;;;;16.00;4.23;;;;;;;;;;4919094;29;20137;-70
2023/01/15 11:55:34;;;;;;;12.80;4.60;;;;;;;;;;4914464;28;20059;-69
2023/01/15 11:58:00;;;;;;;11.93;4.73;;;;;;;;;;4935823;28;20465;-70
2023/01/15 12:00:36;;;;;;;15.87;5.07;;;;;;;;;;4938104;28;20038;-70
2023/01/15 12:03:10;;;;;;;17.93;5.50;;;;;;;;;;4937906;28;20043;-70
2023/01/15 12:05:36;;;;;;;15.33;4.73;;;;;;;;;;4937911;28;20046;-68
2023/01/15 12:08:10;;;;;;;14.70;4.63;;;;;;;;;;4920916;28;20039;-68
2023/01/15 12:11:04;;;;;;;22.50;5.67;;;;;;;;;;4953585;28;20540;-68
2023/01/15 12:13:36;;;;;;;15.97;4.80;;;;;;;;;;4953190;28;20086;-70
2023/01/15 12:16:05;;;;;;;13.40;4.63;;;;;;;;;;4921216;28;20149;-70
2023/01/15 12:18:50;;;;;;;14.40;4.17;;;;;;;;;;4920678;28;20038;-69
2023/01/15 12:21:16;;;;;;;10.70;4.30;;;;;;;;;;4921702;28;20046;-69
2023/01/15 12:24:12;;;;;;;11.70;4.57;;;;;;;;;;4953019;28;20046;-69
2023/01/15 12:26:44;;;;;;;16.67;5.10;;;;;;;;;;4952156;28;20137;-70
2023/01/15 12:29:10;;;;;;;12.70;5.00;;;;;;;;;;4922428;28;20035;-69
2023/01/15 12:32:02;;;;;;;20.93;5.23;;;;;;;;;;4921268;28;20042;-69
2023/01/15 12:34:44;;;;;;;16.17;4.90;;;;;;;;;;4917668;28;20078;-70
2023/01/15 12:37:31;;;;;;;12.00;4.73;;;;;;;;;;4970303;28;20035;-71
2023/01/15 12:40:23;;;;;;;15.60;5.17;;;;;;;;;;4920927;28;20046;-69
2023/01/15 12:45:40;;;;;;;12.90;5.17;;;;;;;;;;4951251;28;20108;-69
2023/01/15 12:48:05;;;;;;;15.30;5.73;;;;;;;;;;4920776;28;20884;-68
2023/01/15 12:50:31;;;;;;;11.57;4.57;;;;;;;;;;4937362;28;20062;-68
2023/01/15 12:53:09;;;;;;;13.57;5.40;;;;;;;;;;4921551;28;20081;-67
2023/01/15 12:55:41;;;;;;;14.67;5.40;;;;;;;;;;4937246;28;20126;-69
2023/01/15 12:58:15;;;;;;;13.57;5.67;;;;;;;;;;4918792;28;20093;-70
2023/01/15 13:00:41;;;;;;;10.03;4.90;;;;;;;;;;4937316;28;20506;-70
2023/01/15 13:03:16;;;;;;;15.83;5.60;;;;;;;;;;4934079;29;20043;-71
2023/01/15 13:05:47;;;;;;;9.63;5.10;;;;;;;;;;4937396;28;20189;-69
2023/01/15 13:08:20;;;;;;;14.85;5.55;;;;;;;;;;4936785;28;20042;-69
2023/01/15 13:10:48;;;;;;;23.20;6.10;;;;;;;;;;4937503;28;20042;-71
2023/01/15 13:13:14;;;;;;;9.53;5.20;;;;;;;;;;4937656;28;20050;-71
2023/01/15 13:15:44;;;;;;;22.87;6.77;;;;;;;;;;4937796;28;20039;-70
2023/01/15 13:18:13;;;;;;;18.73;5.47;;;;;;;;;;4921062;28;20031;-71
2023/01/15 13:20:54;;;;;;;15.37;5.20;;;;;;;;;;4953056;28;20882;-69
2023/01/15 13:23:29;;;;;;;18.70;6.60;;;;;;;;;;4970128;28;20047;-72
2023/01/15 13:26:02;;;;;;;21.77;8.07;;;;;;;;;;4937441;28;20431;-70
2023/01/15 13:28:31;;;;;;;15.13;7.17;;;;;;;;;;4936772;28;20062;-74
2023/01/15 13:31:15;;;;;;;13.30;7.63;;;;;;;;;;4902152;29;20196;-73
2023/01/15 13:33:49;;;;;;;20.30;8.07;;;;;;;;;;4914561;29;20055;-73
2023/01/15 13:36:17;;;;;;;19.20;7.60;;;;;;;;;;4923838;29;20067;-71
2023/01/15 13:38:45;;;;;;;15.37;7.27;;;;;;;;;;4902787;29;20054;-72
2023/01/15 13:42:30;;;;;;;16.30;7.23;;;;;;;;;;4933869;29;20397;-72
2023/01/15 13:44:02;;;;;;;;;;;;;;;;;;4916653;29;20051;-73
2023/01/15 13:46:28;;;;;;;17.23;7.20;;;;;;;;;;4899682;29;19919;-70
2023/01/15 13:48:54;;;;;;;16.17;6.97;;;;;;;;;;4920349;29;20631;-70
2023/01/15 13:51:27;;;;;;;15.93;5.90;;;;;;;;;;4928031;29;20027;-74
2023/01/15 13:53:53;;;;;;;16.97;6.60;;;;;;;;;;4927259;29;20050;-74
2023/01/15 13:56:27;;;;;;;14.07;5.77;;;;;;;;;;4934086;28;20054;-74
2023/01/15 13:58:53;;;;;;;14.20;5.67;;;;;;;;;;4948699;28;20117;-74
2023/01/15 14:01:22;;;;;;;16.13;6.00;;;;;;;;;;4923349;28;20523;-73
2023/01/15 14:03:56;;;;;;;19.07;5.90;;;;;;;;;;4923428;28;20400;-72
2023/01/15 14:06:34;;;;;;;14.37;6.03;;;;;;;;;;4941910;28;20027;-71
2023/01/15 14:08:59;;;;;;;17.60;5.87;;;;;;;;;;4922302;28;20043;-74
2023/01/15 14:11:38;;;;;;;12.80;5.47;;;;;;;;;;4921566;28;20030;-69
2023/01/15 14:14:23;;;;;;;12.07;6.13;;;;;;;;;;4952460;28;20045;-70
2023/01/15 14:16:56;;;;;;;12.20;5.67;;;;;;;;;;4935544;28;20046;-74
2023/01/15 14:19:40;;;;;;;15.77;6.00;;;;;;;;;;4951713;28;20462;-71
2023/01/15 14:22:07;;;;;;;17.53;6.33;;;;;;;;;;4944563;28;20039;-71
2023/01/15 14:24:40;;;;;;;13.97;5.90;;;;;;;;;;4940105;28;20039;-71
2023/01/15 14:27:17;;;;;;;18.50;6.17;;;;;;;;;;4939523;28;20080;-70
2023/01/15 14:29:49;;;;;;;16.97;6.03;;;;;;;;;;4940140;28;20042;-72
2023/01/15 14:32:41;;;;;;;19.03;6.30;;;;;;;;;;4924272;28;20062;-73
2023/01/15 14:35:13;;;;;;;15.80;5.40;;;;;;;;;;4923875;28;20049;-70
2023/01/15 14:37:49;;;;;;;20.43;5.90;;;;;;;;;;4924003;28;20038;-70
2023/01/15 14:40:20;;;;;;;8.90;5.07;;;;;;;;;;4939687;28;20421;-71
2023/01/15 14:43:04;;;;;;;17.42;5.38;;;;;;;;;;4924479;28;20054;-73
2023/01/15 14:45:37;;;;;;;16.50;5.10;;;;;;;;;;4939632;28;20053;-70
2023/01/15 14:48:04;;;;;;;14.43;5.20;;;;;;;;;;4923808;28;20097;-70
2023/01/15 14:50:32;;;;;;;14.00;4.77;;;;;;;;;;4939046;28;20157;-67
2023/01/15 14:53:01;;;;;;;15.33;5.27;;;;;;;;;;4955139;28;20041;-68
2023/01/15 14:55:29;;;;;;;14.40;5.40;;;;;;;;;;4920269;28;20050;-68
2023/01/15 14:57:55;;;;;;;15.73;5.50;;;;;;;;;;4952272;28;20098;-66
2023/01/15 15:00:28;;;;;;;11.53;4.93;;;;;;;;;;4934531;28;20114;-67
2023/01/15 15:02:54;;;;;;;17.13;5.50;;;;;;;;;;4936069;28;20077;-67
2023/01/15 15:05:20;;;;;;;16.63;6.70;;;;;;;;;;4919885;28;20050;-67
2023/01/15 15:07:47;;;;;;;17.03;5.63;;;;;;;;;;4934969;28;20085;-66
2023/01/15 15:10:20;;;;;;;12.67;5.10;;;;;;;;;;4936297;28;20031;-67
2023/01/15 15:12:48;;;;;;;13.27;5.00;;;;;;;;;;4936590;28;20066;-66
2023/01/15 15:15:25;;;;;;;15.80;5.22;;;;;;;;;;4952617;28;20058;-67
2023/01/15 15:17:54;;;;;;;14.57;4.87;;;;;;;;;;4931118;28;20803;-71
2023/01/15 15:20:28;;;;;;;14.83;5.10;;;;;;;;;;4921232;28;20230;-67
2023/01/15 15:22:56;;;;;;;16.53;5.10;;;;;;;;;;4951532;28;20039;-69
2023/01/15 15:25:24;;;;;;;13.70;5.17;;;;;;;;;;4935910;28;20035;-69
2023/01/15 15:28:05;;;;;;;12.10;5.13;;;;;;;;;;4951103;28;20499;-69
2023/01/15 15:30:34;;;;;;;12.18;4.88;;;;;;;;;;4936377;28;20065;-70
2023/01/15 15:33:04;;;;;;;9.87;4.90;;;;;;;;;;4922278;28;20034;-67
2023/01/15 15:35:31;;;;;;;15.80;5.28;;;;;;;;;;4936357;28;20037;-68